Saturday, November 17, 2018, 2:35 AM EST
Back to Local

KMDT, Harrisburg International Airport

Location: Middletown, PA, United States Lat: 40.2
Local Time: 2:35 AM EST ( 7:35 GMT) Lon: -76.767
Time Zone: US/Eastern Elev: 308 ft

Show me the last for .
Show Decoded

2018-11-17 01:56 METAR KMDT 170656Z 29011KT 10SM OVC030 04/M01 A3008 RMK AO2 SLP190 T00441006 =
2018-11-17 01:51 METAR KMDT 170651Z 29009KT 10SM OVC030 04/M01 A3008 RMK AO2 =
2018-11-17 00:56 METAR KMDT 170556Z 32003KT 10SM OVC029 04/M01 A3007 RMK AO2 SLP185 4/003
                 T00391006 10044 20033 53018 =
2018-11-16 23:56 METAR KMDT 170456Z 29006KT 10SM OVC033 04/M01 A3004 RMK AO2 SLP176 T00441006
                 400560006 =
2018-11-16 22:56 METAR KMDT 170356Z 00000KT 10SM BKN036 04/M01 A3002 RMK AO2 SLP170 T00391011 =
2018-11-16 21:56 METAR KMDT 170256Z 29004KT 10SM BKN030 OVC050 04/M01 A3001 RMK AO2 SLP166
                 T00391011 51021 =
2018-11-16 20:56 METAR KMDT 170156Z 28007KT 10SM FEW033 OVC050 04/M01 A2999 RMK AO2 SLP157
                 T00391011 =
2018-11-16 19:56 METAR KMDT 170056Z 29008KT 10SM OVC031 04/M01 A2998 RMK AO2 SLP154 T00441011 =
2018-11-16 18:56 METAR KMDT 162356Z 28011KT 10SM OVC033 04/M02 A2995 RMK AO2 SLP145 4/003
                 T00441017 10056 20044 51021 =
2018-11-16 17:56 METAR KMDT 162256Z 29008KT 10SM OVC036 04/M02 A2992 RMK AO2 SLP136 T00441017 =
2018-11-16 16:56 METAR KMDT 162156Z 28010KT 10SM OVC040 04/M02 A2991 RMK AO2 SLP132 T00441017 =
2018-11-16 15:56 METAR KMDT 162056Z 27012KT 10SM FEW041 BKN075 05/M02 A2989 RMK AO2 SLP123
                 T00501017 53019 =
2018-11-16 14:56 METAR KMDT 161956Z 28013KT 10SM FEW035 FEW250 05/M01 A2985 RMK AO2 SLP112
                 T00501011 =
2018-11-16 13:56 METAR KMDT 161856Z 27009G21KT 10SM OVC035 05/M02 A2985 RMK AO2 SLP111 T00501017
                 =
2018-11-16 12:56 METAR KMDT 161756Z COR 29012KT 10SM SCT036 05/M01 A2983 RMK AO2 SLP104 T00501011
                 10050 20022 4/004 51001 =
2018-11-16 11:56 METAR KMDT 161656Z 29015G22KT 10SM SCT028 BKN034 05/M01 A2983 RMK AO2 SLP104
                 T00501006 =
2018-11-16 10:56 METAR KMDT 161556Z 27007KT 10SM BKN030 04/01 A2984 RMK AO2 SLP107 T00440006 =
2018-11-16 09:56 METAR KMDT 161456Z 28005KT 10SM OVC027 03/00 A2983 RMK AO2 SLP103 T00330000
                 51029 =
2018-11-16 08:56 METAR KMDT 161356Z 25003KT 10SM BKN026 03/00 A2980 RMK AO2 SLP095 T00280000 =
2018-11-16 08:19 METAR KMDT 161319Z 29010KT 10SM BKN030 BKN050 03/M01 A2979 RMK AO2 T00281006 =
2018-11-16 07:56 METAR KMDT 161256Z 30009KT 10SM OVC029 02/M01 A2978 RMK AO2 SLP087 BINOVC
                 T00221006 =
2018-11-16 07:28 METAR KMDT 161228Z 30015KT 10SM BKN028 OVC033 02/M01 A2976 RMK AO2 T00221006 =
2018-11-16 06:56 METAR KMDT 161156Z COR 31010KT 10SM FEW014 SCT024 OVC034 02/M01 A2974 RMK AO2
                 SLP075 60024 70160 4/005 T00171006 10017 20006 51013 =
2018-11-16 06:53 METAR KMDT 161153Z 32010KT 10SM FEW014 BKN024 OVC034 02/M01 A2974 RMK AO2 =
2018-11-16 06:22 METAR KMDT 161122Z 32009KT 10SM OVC013 02/M01 A2974 RMK AO2 T00171006 =
2018-11-16 05:56 METAR KMDT 161056Z 31013KT 10SM FEW009 OVC015 02/M01 A2971 RMK AO2 SLP066
                 T00171006 =
2018-11-16 05:47 METAR KMDT 161047Z 31013KT 10SM FEW009 OVC014 02/M01 A2971 RMK AO2 T00171006 =
2018-11-16 05:27 METAR KMDT 161027Z 31015KT 10SM BKN014 OVC055 02/M01 A2971 RMK AO2 T00171006 =
2018-11-16 04:56 METAR KMDT 160956Z 31014KT 10SM SCT013 BKN060 BKN110 02/M01 A2970 RMK AO2 SNE33
                 SLP061 P0001 T00171006 =
2018-11-16 04:21 METAR KMDT 160921Z 33012KT 9SM -SN SCT010 OVC041 01/00 A2968 RMK AO2 P0001
                 T00110000 =
2018-11-16 03:56 METAR KMDT 160856Z 31014KT 2 1/2SM -SN BR SCT010 OVC015 01/M01 A2970 RMK AO2
                 DZE41 SLP061 P0005 60023 T00111006 51012 =
2018-11-16 03:47 METAR KMDT 160847Z 32016KT 2SM -SN BR SCT008 OVC015 01/M01 A2970 RMK AO2 DZE41
                 P0005 T00111006 =
2018-11-16 03:23 METAR KMDT 160823Z 31016KT 2SM -SNDZ BR BKN008 OVC013 01/00 A2970 RMK AO2 P0003
                 T00110000 =
2018-11-16 03:08 METAR KMDT 160808Z 31014KT 1 1/4SM -SNDZ BR SCT004 OVC011 01/00 A2970 RMK AO2
                 P0002 T00110000 =
2018-11-16 02:56 METAR KMDT 160756Z 31014KT 1 1/2SM -SNDZ BR BKN004 OVC009 01/00 A2970 RMK AO2
                 RAE04DZB55GSB04E51 SLP060 P0012 T00060000 =
2018-11-16 02:43 METAR KMDT 160743Z 31013KT 1SM R13/6000VP6000FT -SNGS BR BKN004 OVC009 01/00
                 A2970 RMK AO2 RAE04GSB04 P0009 T00060000 =
2018-11-16 02:36 METAR KMDT 160736Z 31014KT 2 1/2SM R13/6000VP6000FT -SNGS BR BKN004 BKN009
                 OVC018 01/00 A2970 RMK AO2 RAE04GSB04 P0007 T00110000 =

Support USWX by starting your Amazon purchase here.